KMF647 LTFJ-UBBB
Flight info
| Callsign | KMF647 |
|---|---|
| Flight time | 2h 9m |
| Altitude | 41000 |
| Route | VICEN1J/06L VICEN UT380 ASMAP UL333 LATGA UT363 ESB UT364 ILHAN UW71 TBN UN61 NOLGA N61 LAGAS M747 LUSAL N319 PENOB T447 INSAN INSAN2F |
| Aircraft | A343/H-SDE2E3FGHIJ4J5M1RWXY/LB1D1 |
Departure
| Time | 2026-04-29 15:31 |
|---|---|
| Airport | Istanbul Sabiha Gökçen International Airport (LTFJ) |
Arrival
| Time | 2026-04-29 17:40 |
|---|---|
| Airport | Heydar Aliyev International Airport (UBBB) |
| Time | Latitude | Longitude | Altitude | Speed | Heading |
|---|---|---|---|---|---|
| 2026-04-29 14:28 | 40.90626 | 29.31653 | 325 ft | 0 kts | 334° |
| 2026-04-29 15:16 | 40.90614 | 29.31661 | 320 ft | 4 kts | 334° |
| 2026-04-29 15:17 | 40.90590 | 29.31677 | 320 ft | 4 kts | 327° |
| 2026-04-29 15:17 | 40.90571 | 29.31700 | 320 ft | 4 kts | 302° |
| 2026-04-29 15:17 | 40.90562 | 29.31731 | 320 ft | 4 kts | 266° |
| 2026-04-29 15:17 | 40.90565 | 29.31753 | 320 ft | 1 kts | 244° |
| 2026-04-29 15:18 | 40.90567 | 29.31756 | 320 ft | 0 kts | 244° |
| 2026-04-29 15:21 | 40.90563 | 29.31745 | 321 ft | 2 kts | 244° |
| 2026-04-29 15:21 | 40.90552 | 29.31716 | 320 ft | 5 kts | 244° |
| 2026-04-29 15:21 | 40.90535 | 29.31670 | 320 ft | 7 kts | 244° |
| 2026-04-29 15:22 | 40.90511 | 29.31605 | 323 ft | 9 kts | 244° |
| 2026-04-29 15:22 | 40.90481 | 29.31524 | 323 ft | 11 kts | 244° |
| 2026-04-29 15:22 | 40.90450 | 29.31443 | 321 ft | 7 kts | 237° |
| 2026-04-29 15:22 | 40.90422 | 29.31431 | 322 ft | 2 kts | 160° |
| 2026-04-29 15:23 | 40.90401 | 29.31444 | 321 ft | 5 kts | 154° |
| 2026-04-29 15:23 | 40.90366 | 29.31467 | 324 ft | 7 kts | 153° |
| 2026-04-29 15:23 | 40.90320 | 29.31498 | 324 ft | 8 kts | 155° |
| 2026-04-29 15:23 | 40.90281 | 29.31489 | 322 ft | 7 kts | 218° |
| 2026-04-29 15:24 | 40.90243 | 29.31405 | 320 ft | 13 kts | 244° |
| 2026-04-29 15:24 | 40.90190 | 29.31259 | 324 ft | 19 kts | 244° |
| 2026-04-29 15:24 | 40.90129 | 29.31094 | 320 ft | 21 kts | 244° |
| 2026-04-29 15:24 | 40.90064 | 29.30916 | 321 ft | 22 kts | 244° |
| 2026-04-29 15:25 | 40.89995 | 29.30730 | 322 ft | 23 kts | 243° |
| 2026-04-29 15:25 | 40.89920 | 29.30531 | 321 ft | 25 kts | 243° |
| 2026-04-29 15:25 | 40.89845 | 29.30322 | 322 ft | 26 kts | 245° |
| 2026-04-29 15:25 | 40.89765 | 29.30102 | 322 ft | 27 kts | 244° |
| 2026-04-29 15:26 | 40.89681 | 29.29875 | 322 ft | 28 kts | 244° |
| 2026-04-29 15:26 | 40.89594 | 29.29639 | 321 ft | 29 kts | 244° |
| 2026-04-29 15:26 | 40.89505 | 29.29397 | 322 ft | 30 kts | 244° |
| 2026-04-29 15:26 | 40.89456 | 29.29273 | 323 ft | 9 kts | 233° |
| 2026-04-29 15:27 | 40.89417 | 29.29246 | 322 ft | 0 kts | 176° |
| 2026-04-29 15:27 | 40.89409 | 29.29247 | 321 ft | 2 kts | 174° |
| 2026-04-29 15:27 | 40.89387 | 29.29253 | 322 ft | 3 kts | 161° |
| 2026-04-29 15:27 | 40.89365 | 29.29270 | 323 ft | 3 kts | 152° |
| 2026-04-29 15:28 | 40.89362 | 29.29271 | 323 ft | 0 kts | 152° |
| 2026-04-29 15:30 | 40.89287 | 29.29353 | 323 ft | 11 kts | 99° |
| 2026-04-29 15:30 | 40.89307 | 29.29426 | 322 ft | 0 kts | 60° |
| 2026-04-29 15:30 | 40.89319 | 29.29459 | 323 ft | 22 kts | 63° |
| 2026-04-29 15:30 | 40.89485 | 29.29920 | 322 ft | 88 kts | 64° |
| 2026-04-29 15:31 | 40.89835 | 29.30867 | 323 ft | 139 kts | 63° |
| 2026-04-29 15:31 | 40.90307 | 29.32142 | 655 ft | 160 kts | 63° |
| 2026-04-29 15:31 | 40.90787 | 29.33483 | 1348 ft | 161 kts | 65° |
| 2026-04-29 15:31 | 40.91267 | 29.34810 | 2097 ft | 167 kts | 65° |
| 2026-04-29 15:32 | 40.91814 | 29.36326 | 2504 ft | 195 kts | 66° |
| 2026-04-29 15:32 | 40.92136 | 29.38217 | 2946 ft | 228 kts | 89° |
| 2026-04-29 15:32 | 40.91998 | 29.40388 | 3773 ft | 245 kts | 98° |
| 2026-04-29 15:32 | 40.91629 | 29.42612 | 4723 ft | 255 kts | 104° |
| 2026-04-29 15:33 | 40.91124 | 29.44903 | 5724 ft | 263 kts | 106° |
| 2026-04-29 15:33 | 40.90564 | 29.47248 | 6687 ft | 272 kts | 106° |
| 2026-04-29 15:33 | 40.89981 | 29.49682 | 7539 ft | 283 kts | 105° |
| 2026-04-29 15:33 | 40.89403 | 29.52164 | 8471 ft | 289 kts | 105° |
| 2026-04-29 15:34 | 40.88818 | 29.54752 | 9405 ft | 297 kts | 105° |
| 2026-04-29 15:34 | 40.88233 | 29.57414 | 10275 ft | 306 kts | 105° |
| 2026-04-29 15:34 | 40.87629 | 29.60217 | 10723 ft | 327 kts | 105° |
| 2026-04-29 15:34 | 40.86996 | 29.63163 | 11116 ft | 348 kts | 105° |
| 2026-04-29 15:35 | 40.86315 | 29.66330 | 11574 ft | 365 kts | 105° |
| 2026-04-29 15:35 | 40.85608 | 29.69612 | 12255 ft | 375 kts | 106° |
| 2026-04-29 15:35 | 40.84893 | 29.72920 | 12975 ft | 382 kts | 106° |
| 2026-04-29 15:35 | 40.84154 | 29.76333 | 13745 ft | 389 kts | 107° |
| 2026-04-29 15:36 | 40.83410 | 29.79764 | 14448 ft | 395 kts | 107° |
| 2026-04-29 15:36 | 40.82645 | 29.83289 | 15171 ft | 400 kts | 107° |
| 2026-04-29 15:36 | 40.81872 | 29.86839 | 15893 ft | 404 kts | 107° |
| 2026-04-29 15:36 | 40.81090 | 29.90440 | 16600 ft | 410 kts | 106° |
| 2026-04-29 15:37 | 40.80305 | 29.94037 | 17316 ft | 415 kts | 106° |
| 2026-04-29 15:37 | 40.79496 | 29.97730 | 18031 ft | 420 kts | 106° |
| 2026-04-29 15:37 | 40.78678 | 30.01456 | 18675 ft | 426 kts | 106° |
| 2026-04-29 15:37 | 40.77844 | 30.05242 | 19268 ft | 431 kts | 106° |
| 2026-04-29 15:38 | 40.77010 | 30.09022 | 19900 ft | 435 kts | 106° |
| 2026-04-29 15:38 | 40.76159 | 30.12880 | 20533 ft | 439 kts | 106° |
| 2026-04-29 15:38 | 40.75301 | 30.16766 | 21165 ft | 444 kts | 107° |
| 2026-04-29 15:38 | 40.74432 | 30.20696 | 21771 ft | 448 kts | 107° |
| 2026-04-29 15:39 | 40.73565 | 30.24613 | 22350 ft | 452 kts | 107° |
| 2026-04-29 15:39 | 40.72676 | 30.28619 | 22923 ft | 456 kts | 107° |
| 2026-04-29 15:39 | 40.71776 | 30.32669 | 23484 ft | 460 kts | 107° |
| 2026-04-29 15:39 | 40.70880 | 30.36691 | 23934 ft | 465 kts | 107° |
| 2026-04-29 15:40 | 40.69964 | 30.40796 | 24092 ft | 467 kts | 107° |
| 2026-04-29 15:40 | 40.69048 | 30.44898 | 24122 ft | 467 kts | 107° |
| 2026-04-29 15:40 | 40.68124 | 30.49021 | 24124 ft | 467 kts | 107° |
| 2026-04-29 15:40 | 40.67201 | 30.53134 | 24121 ft | 468 kts | 107° |
| 2026-04-29 15:41 | 40.66289 | 30.57191 | 24120 ft | 468 kts | 107° |
| 2026-04-29 15:41 | 40.65363 | 30.61301 | 24118 ft | 468 kts | 107° |
| 2026-04-29 15:41 | 40.64431 | 30.65430 | 24117 ft | 468 kts | 107° |
| 2026-04-29 15:41 | 40.63514 | 30.69488 | 24116 ft | 468 kts | 107° |
| 2026-04-29 15:42 | 40.62587 | 30.73610 | 24116 ft | 468 kts | 106° |
| 2026-04-29 15:42 | 40.61699 | 30.77740 | 24106 ft | 468 kts | 105° |
| 2026-04-29 15:42 | 40.60835 | 30.81871 | 24108 ft | 468 kts | 105° |
| 2026-04-29 15:42 | 40.59985 | 30.85960 | 24107 ft | 468 kts | 105° |
| 2026-04-29 15:43 | 40.59123 | 30.90095 | 24110 ft | 467 kts | 105° |
| 2026-04-29 15:43 | 40.58257 | 30.94223 | 24110 ft | 468 kts | 105° |
| 2026-04-29 15:43 | 40.57384 | 30.98349 | 24104 ft | 468 kts | 105° |
| 2026-04-29 15:43 | 40.56516 | 31.02430 | 24105 ft | 468 kts | 106° |
| 2026-04-29 15:44 | 40.55635 | 31.06557 | 24106 ft | 468 kts | 106° |
| 2026-04-29 15:44 | 40.54870 | 31.10733 | 24095 ft | 468 kts | 98° |
| 2026-04-29 15:44 | 40.54669 | 31.14935 | 24113 ft | 467 kts | 85° |
| 2026-04-29 15:44 | 40.55319 | 31.19090 | 24405 ft | 464 kts | 66° |
| 2026-04-29 15:45 | 40.56840 | 31.22805 | 24857 ft | 460 kts | 51° |
| 2026-04-29 15:45 | 40.58443 | 31.26428 | 25250 ft | 469 kts | 65° |
| 2026-04-29 15:45 | 40.59371 | 31.30575 | 25754 ft | 475 kts | 76° |
| 2026-04-29 15:45 | 40.59913 | 31.34900 | 26209 ft | 479 kts | 80° |
| 2026-04-29 15:46 | 40.60306 | 31.39264 | 26619 ft | 483 kts | 81° |
| 2026-04-29 15:46 | 40.60685 | 31.43627 | 27024 ft | 486 kts | 81° |
| 2026-04-29 15:46 | 40.61113 | 31.48042 | 27502 ft | 487 kts | 80° |
| 2026-04-29 15:46 | 40.61598 | 31.52481 | 27924 ft | 490 kts | 79° |
| 2026-04-29 15:47 | 40.62127 | 31.56924 | 28338 ft | 493 kts | 78° |
| 2026-04-29 15:47 | 40.62681 | 31.61354 | 28628 ft | 498 kts | 78° |
| 2026-04-29 15:47 | 40.63262 | 31.65886 | 28980 ft | 501 kts | 77° |
| 2026-04-29 15:47 | 40.63846 | 31.70429 | 29382 ft | 503 kts | 77° |
| 2026-04-29 15:48 | 40.64422 | 31.74929 | 29771 ft | 505 kts | 77° |
| 2026-04-29 15:48 | 40.65003 | 31.79509 | 30141 ft | 508 kts | 77° |
| 2026-04-29 15:48 | 40.65584 | 31.84116 | 30458 ft | 510 kts | 77° |
| 2026-04-29 15:48 | 40.66158 | 31.88695 | 30769 ft | 512 kts | 77° |
| 2026-04-29 15:49 | 40.66737 | 31.93350 | 31033 ft | 515 kts | 77° |
| 2026-04-29 15:49 | 40.67319 | 31.98040 | 31356 ft | 517 kts | 77° |
| 2026-04-29 15:49 | 40.67889 | 32.02653 | 31785 ft | 516 kts | 77° |
| 2026-04-29 15:49 | 40.68468 | 32.07338 | 32102 ft | 517 kts | 77° |
| 2026-04-29 15:50 | 40.69045 | 32.12024 | 32503 ft | 517 kts | 77° |
| 2026-04-29 15:50 | 40.69612 | 32.16661 | 32906 ft | 516 kts | 77° |
| 2026-04-29 15:50 | 40.70181 | 32.21327 | 33312 ft | 515 kts | 77° |
| 2026-04-29 15:50 | 40.70748 | 32.25993 | 33712 ft | 514 kts | 77° |
| 2026-04-29 15:51 | 40.71313 | 32.30652 | 34142 ft | 512 kts | 77° |
| 2026-04-29 15:51 | 40.71866 | 32.35236 | 34443 ft | 512 kts | 77° |
| 2026-04-29 15:51 | 40.72425 | 32.39876 | 34762 ft | 512 kts | 77° |
| 2026-04-29 15:51 | 40.72982 | 32.44513 | 35051 ft | 512 kts | 77° |
| 2026-04-29 15:52 | 40.73531 | 32.49099 | 35308 ft | 513 kts | 77° |
| 2026-04-29 15:52 | 40.74089 | 32.53769 | 35563 ft | 514 kts | 78° |
| 2026-04-29 15:52 | 40.74644 | 32.58441 | 35882 ft | 513 kts | 78° |
| 2026-04-29 15:52 | 40.75186 | 32.63030 | 36172 ft | 513 kts | 78° |
| 2026-04-29 15:53 | 40.75736 | 32.67683 | 36438 ft | 513 kts | 78° |
| 2026-04-29 15:53 | 40.76284 | 32.72341 | 36715 ft | 513 kts | 78° |
| 2026-04-29 15:53 | 40.76832 | 32.77011 | 36969 ft | 513 kts | 79° |
| 2026-04-29 15:53 | 40.77370 | 32.81626 | 37213 ft | 514 kts | 79° |
| 2026-04-29 15:54 | 40.77914 | 32.86312 | 37475 ft | 514 kts | 79° |
| 2026-04-29 15:54 | 40.78454 | 32.90970 | 37782 ft | 513 kts | 79° |
| 2026-04-29 15:54 | 40.78988 | 32.95577 | 37996 ft | 514 kts | 79° |
| 2026-04-29 15:54 | 40.79524 | 33.00246 | 38250 ft | 515 kts | 79° |
| 2026-04-29 15:55 | 40.80058 | 33.04925 | 38525 ft | 514 kts | 79° |
| 2026-04-29 15:55 | 40.80589 | 33.09588 | 38766 ft | 514 kts | 80° |
| 2026-04-29 15:55 | 40.81032 | 33.14229 | 38946 ft | 514 kts | 83° |
| 2026-04-29 15:55 | 40.81388 | 33.18933 | 39169 ft | 514 kts | 84° |
| 2026-04-29 15:56 | 40.81703 | 33.23639 | 39403 ft | 513 kts | 84° |
| 2026-04-29 15:56 | 40.81995 | 33.28293 | 39578 ft | 512 kts | 84° |
| 2026-04-29 15:56 | 40.82280 | 33.32994 | 39756 ft | 513 kts | 84° |
| 2026-04-29 15:56 | 40.82564 | 33.37696 | 39926 ft | 513 kts | 85° |
| 2026-04-29 15:57 | 40.82849 | 33.42391 | 40110 ft | 513 kts | 84° |
| 2026-04-29 15:57 | 40.83132 | 33.47033 | 40304 ft | 512 kts | 84° |
| 2026-04-29 15:57 | 40.83418 | 33.51719 | 40482 ft | 512 kts | 84° |
| 2026-04-29 15:57 | 40.83704 | 33.56414 | 40643 ft | 512 kts | 84° |
| 2026-04-29 15:58 | 40.83986 | 33.61057 | 40782 ft | 512 kts | 85° |
| 2026-04-29 15:58 | 40.84269 | 33.65768 | 40952 ft | 512 kts | 85° |
| 2026-04-29 15:58 | 40.84554 | 33.70475 | 41034 ft | 514 kts | 84° |
| 2026-04-29 15:59 | 40.85142 | 33.79921 | 41013 ft | 522 kts | 84° |
| 2026-04-29 15:59 | 40.85738 | 33.89567 | 41021 ft | 529 kts | 84° |
| 2026-04-29 16:00 | 40.86325 | 33.99221 | 41013 ft | 529 kts | 85° |
| 2026-04-29 16:00 | 40.86902 | 34.08884 | 41020 ft | 529 kts | 85° |
| 2026-04-29 16:01 | 40.87473 | 34.18585 | 41016 ft | 529 kts | 85° |
| 2026-04-29 16:01 | 40.88031 | 34.28225 | 41021 ft | 529 kts | 85° |
| 2026-04-29 16:02 | 40.88586 | 34.37937 | 41039 ft | 529 kts | 85° |
| 2026-04-29 16:02 | 40.89132 | 34.47653 | 41019 ft | 530 kts | 85° |
| 2026-04-29 16:03 | 40.89668 | 34.57303 | 41028 ft | 530 kts | 85° |
| 2026-04-29 16:03 | 40.90199 | 34.67028 | 41028 ft | 530 kts | 85° |
| 2026-04-29 16:04 | 40.90724 | 34.76755 | 41039 ft | 530 kts | 85° |
| 2026-04-29 16:04 | 40.91238 | 34.86443 | 41045 ft | 530 kts | 85° |
| 2026-04-29 16:05 | 40.91739 | 34.96117 | 41056 ft | 531 kts | 85° |
| 2026-04-29 16:05 | 40.92155 | 35.04238 | 41057 ft | 531 kts | 85° |
| 2026-04-29 16:06 | 40.92727 | 35.15588 | 41071 ft | 531 kts | 85° |
| 2026-04-29 16:06 | 40.93209 | 35.25310 | 41072 ft | 531 kts | 86° |
| 2026-04-29 16:07 | 40.93604 | 35.33422 | 41070 ft | 531 kts | 86° |
| 2026-04-29 16:07 | 40.94147 | 35.44753 | 41075 ft | 530 kts | 86° |
| 2026-04-29 16:08 | 40.94534 | 35.52866 | 41076 ft | 531 kts | 86° |
| 2026-04-29 16:08 | 40.94981 | 35.62572 | 41090 ft | 530 kts | 86° |
| 2026-04-29 16:09 | 40.95424 | 35.72325 | 41096 ft | 530 kts | 86° |
| 2026-04-29 16:09 | 40.95859 | 35.82024 | 41098 ft | 530 kts | 86° |
| 2026-04-29 16:10 | 40.96282 | 35.91756 | 41129 ft | 529 kts | 86° |
| 2026-04-29 16:10 | 40.96697 | 36.01451 | 41126 ft | 529 kts | 86° |
| 2026-04-29 16:11 | 40.97106 | 36.11198 | 41157 ft | 529 kts | 86° |
| 2026-04-29 16:11 | 40.97504 | 36.20884 | 41167 ft | 529 kts | 86° |
| 2026-04-29 16:12 | 40.97879 | 36.30201 | 41185 ft | 529 kts | 86° |
| 2026-04-29 16:12 | 40.98261 | 36.39884 | 41217 ft | 529 kts | 86° |
| 2026-04-29 16:13 | 40.98636 | 36.49574 | 41206 ft | 528 kts | 87° |
| 2026-04-29 16:13 | 40.99005 | 36.59297 | 41200 ft | 528 kts | 87° |
| 2026-04-29 16:14 | 40.99366 | 36.68955 | 41196 ft | 527 kts | 87° |
| 2026-04-29 16:14 | 40.99714 | 36.78655 | 41195 ft | 527 kts | 87° |
| 2026-04-29 16:15 | 41.00054 | 36.88316 | 41199 ft | 527 kts | 87° |
| 2026-04-29 16:15 | 41.00387 | 36.97974 | 41201 ft | 527 kts | 88° |
| 2026-04-29 16:16 | 41.00714 | 37.07649 | 41189 ft | 527 kts | 88° |
| 2026-04-29 16:16 | 41.01033 | 37.17336 | 41199 ft | 526 kts | 88° |
| 2026-04-29 16:17 | 41.01344 | 37.26954 | 41200 ft | 525 kts | 88° |
| 2026-04-29 16:17 | 41.01647 | 37.36643 | 41201 ft | 525 kts | 88° |
| 2026-04-29 16:18 | 41.01937 | 37.46269 | 41197 ft | 525 kts | 88° |
| 2026-04-29 16:18 | 41.02222 | 37.55959 | 41194 ft | 525 kts | 88° |
| 2026-04-29 16:19 | 41.02496 | 37.65590 | 41188 ft | 524 kts | 88° |
| 2026-04-29 16:19 | 41.02766 | 37.75209 | 41184 ft | 524 kts | 89° |
| 2026-04-29 16:20 | 41.03024 | 37.84811 | 41185 ft | 524 kts | 89° |
| 2026-04-29 16:20 | 41.03280 | 37.94472 | 41186 ft | 524 kts | 89° |
| 2026-04-29 16:21 | 41.03524 | 38.04087 | 41185 ft | 525 kts | 89° |
| 2026-04-29 16:21 | 41.03758 | 38.13772 | 41182 ft | 525 kts | 89° |
| 2026-04-29 16:22 | 41.03984 | 38.23400 | 41187 ft | 525 kts | 89° |
| 2026-04-29 16:22 | 41.04205 | 38.33094 | 41187 ft | 525 kts | 89° |
| 2026-04-29 16:23 | 41.04416 | 38.42715 | 41190 ft | 525 kts | 89° |
| 2026-04-29 16:23 | 41.04621 | 38.52411 | 41188 ft | 527 kts | 89° |
| 2026-04-29 16:24 | 41.04818 | 38.62085 | 41188 ft | 527 kts | 89° |
| 2026-04-29 16:24 | 41.05010 | 38.71727 | 41182 ft | 527 kts | 89° |
| 2026-04-29 16:25 | 41.05189 | 38.81446 | 41182 ft | 527 kts | 89° |
| 2026-04-29 16:25 | 41.05358 | 38.91132 | 41181 ft | 527 kts | 89° |
| 2026-04-29 16:26 | 41.05521 | 39.00813 | 41180 ft | 527 kts | 90° |
| 2026-04-29 16:26 | 41.05676 | 39.10542 | 41176 ft | 527 kts | 90° |
| 2026-04-29 16:27 | 41.05141 | 39.20163 | 41179 ft | 526 kts | 98° |
| 2026-04-29 16:27 | 41.04284 | 39.29796 | 41180 ft | 526 kts | 98° |
| 2026-04-29 16:28 | 41.03373 | 39.39382 | 41185 ft | 526 kts | 99° |
| 2026-04-29 16:28 | 41.02455 | 39.49012 | 41194 ft | 526 kts | 99° |
| 2026-04-29 16:29 | 41.01693 | 39.58586 | 41208 ft | 527 kts | 93° |
| 2026-04-29 16:29 | 41.01559 | 39.68282 | 41205 ft | 528 kts | 91° |
| 2026-04-29 16:30 | 41.01573 | 39.78043 | 41213 ft | 529 kts | 91° |
| 2026-04-29 16:30 | 41.01534 | 39.87739 | 41214 ft | 528 kts | 92° |
| 2026-04-29 16:31 | 41.01331 | 39.97427 | 41212 ft | 528 kts | 93° |
| 2026-04-29 16:31 | 41.01105 | 40.07191 | 41201 ft | 528 kts | 93° |
| 2026-04-29 16:32 | 41.00896 | 40.16862 | 41186 ft | 527 kts | 93° |
| 2026-04-29 16:32 | 41.00691 | 40.26522 | 41179 ft | 526 kts | 93° |
| 2026-04-29 16:33 | 41.00370 | 40.41030 | 41188 ft | 526 kts | 93° |
| 2026-04-29 16:33 | 41.00145 | 40.50679 | 41184 ft | 526 kts | 93° |
| 2026-04-29 16:34 | 40.99910 | 40.60376 | 41191 ft | 525 kts | 93° |
| 2026-04-29 16:34 | 40.99670 | 40.69979 | 41179 ft | 525 kts | 93° |
| 2026-04-29 16:35 | 40.99420 | 40.79671 | 41177 ft | 525 kts | 93° |
| 2026-04-29 16:35 | 40.99163 | 40.89280 | 41186 ft | 525 kts | 94° |
| 2026-04-29 16:36 | 40.98898 | 40.98892 | 41178 ft | 524 kts | 94° |
| 2026-04-29 16:36 | 40.98626 | 41.08543 | 41174 ft | 524 kts | 94° |
| 2026-04-29 16:37 | 40.98344 | 41.18152 | 41143 ft | 524 kts | 94° |
| 2026-04-29 16:37 | 40.98103 | 41.26155 | 41138 ft | 524 kts | 94° |
| 2026-04-29 16:38 | 40.97758 | 41.37415 | 41125 ft | 524 kts | 94° |
| 2026-04-29 16:38 | 40.97453 | 41.47031 | 41121 ft | 524 kts | 94° |
| 2026-04-29 16:39 | 40.97139 | 41.56694 | 41109 ft | 524 kts | 94° |
| 2026-04-29 16:39 | 40.96819 | 41.66278 | 41124 ft | 524 kts | 94° |
| 2026-04-29 16:40 | 40.96490 | 41.75880 | 41111 ft | 523 kts | 94° |
| 2026-04-29 16:40 | 40.96151 | 41.85533 | 41126 ft | 523 kts | 95° |
| 2026-04-29 16:41 | 40.95808 | 41.95110 | 41129 ft | 523 kts | 95° |
| 2026-04-29 16:41 | 40.95458 | 42.04668 | 41118 ft | 523 kts | 95° |
| 2026-04-29 16:42 | 40.95097 | 42.14301 | 41117 ft | 523 kts | 95° |
| 2026-04-29 16:42 | 40.94730 | 42.23856 | 41112 ft | 523 kts | 95° |
| 2026-04-29 16:43 | 40.94353 | 42.33482 | 41099 ft | 523 kts | 95° |
| 2026-04-29 16:43 | 40.93975 | 42.43078 | 41095 ft | 523 kts | 95° |
| 2026-04-29 16:44 | 40.93580 | 42.52698 | 41091 ft | 523 kts | 95° |
| 2026-04-29 16:44 | 40.93181 | 42.62216 | 41083 ft | 523 kts | 95° |
| 2026-04-29 16:45 | 40.92771 | 42.71833 | 41081 ft | 523 kts | 95° |
| 2026-04-29 16:45 | 40.92354 | 42.81433 | 41080 ft | 523 kts | 96° |
| 2026-04-29 16:46 | 40.91931 | 42.90994 | 41073 ft | 522 kts | 96° |
| 2026-04-29 16:46 | 40.91506 | 43.00542 | 41061 ft | 522 kts | 96° |
| 2026-04-29 16:47 | 40.91064 | 43.10132 | 41070 ft | 522 kts | 96° |
| 2026-04-29 16:47 | 40.90616 | 43.19689 | 41063 ft | 522 kts | 96° |
| 2026-04-29 16:48 | 40.90182 | 43.28821 | 41064 ft | 522 kts | 96° |
| 2026-04-29 16:48 | 40.89722 | 43.38348 | 41065 ft | 522 kts | 96° |
| 2026-04-29 16:49 | 40.89252 | 43.47923 | 41066 ft | 522 kts | 96° |
| 2026-04-29 16:49 | 40.88773 | 43.57518 | 41069 ft | 522 kts | 96° |
| 2026-04-29 16:50 | 40.88288 | 43.67056 | 41069 ft | 522 kts | 96° |
| 2026-04-29 16:50 | 40.87795 | 43.76592 | 41069 ft | 522 kts | 96° |
| 2026-04-29 16:51 | 40.87295 | 43.86115 | 41070 ft | 521 kts | 97° |
| 2026-04-29 16:51 | 40.86788 | 43.95630 | 41085 ft | 520 kts | 97° |
| 2026-04-29 16:52 | 40.86271 | 44.05171 | 41090 ft | 520 kts | 97° |
| 2026-04-29 16:52 | 40.85749 | 44.14659 | 41092 ft | 520 kts | 97° |
| 2026-04-29 16:53 | 40.85219 | 44.24203 | 41092 ft | 519 kts | 97° |
| 2026-04-29 16:53 | 40.84681 | 44.33681 | 41099 ft | 519 kts | 97° |
| 2026-04-29 16:54 | 40.84135 | 44.43154 | 41101 ft | 519 kts | 97° |
| 2026-04-29 16:54 | 40.83579 | 44.52691 | 41096 ft | 519 kts | 97° |
| 2026-04-29 16:55 | 40.83019 | 44.62166 | 41100 ft | 519 kts | 97° |
| 2026-04-29 16:55 | 40.82450 | 44.71657 | 41096 ft | 519 kts | 97° |
| 2026-04-29 16:56 | 40.81873 | 44.81136 | 41098 ft | 520 kts | 97° |
| 2026-04-29 16:56 | 40.81286 | 44.90667 | 41104 ft | 520 kts | 97° |
| 2026-04-29 16:57 | 40.80695 | 45.00129 | 41098 ft | 520 kts | 98° |
| 2026-04-29 16:57 | 40.80097 | 45.09603 | 41098 ft | 520 kts | 98° |
| 2026-04-29 16:58 | 40.79484 | 45.19145 | 41101 ft | 520 kts | 98° |
| 2026-04-29 16:58 | 40.78868 | 45.28626 | 41101 ft | 520 kts | 98° |
| 2026-04-29 16:59 | 40.78244 | 45.38109 | 41102 ft | 520 kts | 98° |
| 2026-04-29 16:59 | 40.77610 | 45.47633 | 41087 ft | 520 kts | 98° |
| 2026-04-29 17:00 | 40.76971 | 45.57097 | 41105 ft | 521 kts | 98° |
| 2026-04-29 17:00 | 40.76327 | 45.66585 | 41105 ft | 521 kts | 98° |
| 2026-04-29 17:01 | 40.75671 | 45.76062 | 41100 ft | 521 kts | 98° |
| 2026-04-29 17:01 | 40.75002 | 45.85574 | 41097 ft | 521 kts | 98° |
| 2026-04-29 17:02 | 40.74329 | 45.95050 | 41090 ft | 521 kts | 98° |
| 2026-04-29 17:02 | 40.73645 | 46.04580 | 41086 ft | 521 kts | 98° |
| 2026-04-29 17:03 | 40.72958 | 46.14075 | 41078 ft | 521 kts | 98° |
| 2026-04-29 17:03 | 40.72268 | 46.23515 | 41075 ft | 521 kts | 99° |
| 2026-04-29 17:04 | 40.71564 | 46.33034 | 41063 ft | 521 kts | 99° |
| 2026-04-29 17:04 | 40.70851 | 46.42551 | 41071 ft | 522 kts | 99° |
| 2026-04-29 17:05 | 40.70132 | 46.52033 | 41076 ft | 522 kts | 99° |
| 2026-04-29 17:05 | 40.69406 | 46.61516 | 41092 ft | 522 kts | 99° |
| 2026-04-29 17:06 | 40.68667 | 46.71058 | 41100 ft | 522 kts | 99° |
| 2026-04-29 17:06 | 40.67925 | 46.80543 | 41101 ft | 522 kts | 99° |
| 2026-04-29 17:07 | 40.66635 | 46.89862 | 41102 ft | 517 kts | 109° |
| 2026-04-29 17:07 | 40.64515 | 46.98904 | 41103 ft | 515 kts | 112° |
| 2026-04-29 17:08 | 40.62216 | 47.07791 | 41092 ft | 515 kts | 113° |
| 2026-04-29 17:08 | 40.60099 | 47.16781 | 41104 ft | 517 kts | 110° |
| 2026-04-29 17:09 | 40.58186 | 47.25889 | 41101 ft | 517 kts | 109° |
| 2026-04-29 17:09 | 40.56259 | 47.35032 | 41102 ft | 517 kts | 110° |
| 2026-04-29 17:10 | 40.54308 | 47.44077 | 41101 ft | 517 kts | 110° |
| 2026-04-29 17:10 | 40.52312 | 47.53177 | 41102 ft | 517 kts | 110° |
| 2026-04-29 17:11 | 40.50319 | 47.62216 | 41106 ft | 517 kts | 110° |
| 2026-04-29 17:11 | 40.48313 | 47.71297 | 41081 ft | 517 kts | 110° |
| 2026-04-29 17:12 | 40.46313 | 47.80317 | 40957 ft | 513 kts | 110° |
| 2026-04-29 17:12 | 40.45325 | 47.84767 | 40430 ft | 512 kts | 110° |
| 2026-04-29 17:12 | 40.44656 | 47.87770 | 40040 ft | 513 kts | 110° |
| 2026-04-29 17:13 | 40.43329 | 47.93732 | 39330 ft | 512 kts | 110° |
| 2026-04-29 17:13 | 40.42324 | 47.98231 | 38810 ft | 511 kts | 110° |
| 2026-04-29 17:13 | 40.41321 | 48.02699 | 38142 ft | 510 kts | 110° |
| 2026-04-29 17:13 | 40.40315 | 48.07171 | 37422 ft | 510 kts | 110° |
| 2026-04-29 17:14 | 40.39319 | 48.11586 | 36747 ft | 509 kts | 110° |
| 2026-04-29 17:14 | 40.38314 | 48.16041 | 36092 ft | 508 kts | 110° |
| 2026-04-29 17:14 | 40.37309 | 48.20484 | 35413 ft | 507 kts | 109° |
| 2026-04-29 17:14 | 40.36316 | 48.24864 | 34754 ft | 506 kts | 109° |
| 2026-04-29 17:15 | 40.35311 | 48.29293 | 34079 ft | 505 kts | 109° |
| 2026-04-29 17:15 | 40.34307 | 48.33710 | 33223 ft | 505 kts | 109° |
| 2026-04-29 17:15 | 40.33308 | 48.38092 | 32284 ft | 506 kts | 109° |
| 2026-04-29 17:15 | 40.32296 | 48.42524 | 31327 ft | 508 kts | 109° |
| 2026-04-29 17:16 | 40.31286 | 48.46938 | 30378 ft | 511 kts | 109° |
| 2026-04-29 17:16 | 40.30264 | 48.51398 | 29258 ft | 513 kts | 109° |
| 2026-04-29 17:16 | 40.29236 | 48.55876 | 28403 ft | 509 kts | 109° |
| 2026-04-29 17:16 | 40.28218 | 48.60308 | 27697 ft | 503 kts | 109° |
| 2026-04-29 17:17 | 40.27225 | 48.64623 | 26999 ft | 497 kts | 109° |
| 2026-04-29 17:17 | 40.26232 | 48.68929 | 26321 ft | 491 kts | 109° |
| 2026-04-29 17:17 | 40.25248 | 48.73190 | 25638 ft | 485 kts | 109° |
| 2026-04-29 17:17 | 40.24283 | 48.77353 | 24955 ft | 481 kts | 109° |
| 2026-04-29 17:18 | 40.23309 | 48.81542 | 24279 ft | 476 kts | 109° |
| 2026-04-29 17:18 | 40.22348 | 48.85671 | 23595 ft | 472 kts | 109° |
| 2026-04-29 17:18 | 40.21410 | 48.89706 | 22839 ft | 467 kts | 109° |
| 2026-04-29 17:18 | 40.20461 | 48.93766 | 22072 ft | 463 kts | 109° |
| 2026-04-29 17:19 | 40.19521 | 48.97778 | 21356 ft | 458 kts | 109° |
| 2026-04-29 17:19 | 40.18589 | 49.01750 | 20653 ft | 453 kts | 109° |
| 2026-04-29 17:19 | 40.17676 | 49.05635 | 20004 ft | 448 kts | 109° |
| 2026-04-29 17:19 | 40.16762 | 49.09521 | 19365 ft | 443 kts | 109° |
| 2026-04-29 17:20 | 40.15869 | 49.13316 | 18762 ft | 438 kts | 109° |
| 2026-04-29 17:20 | 40.14967 | 49.17137 | 18094 ft | 433 kts | 109° |
| 2026-04-29 17:20 | 40.14091 | 49.20844 | 17405 ft | 429 kts | 109° |
| 2026-04-29 17:20 | 40.13214 | 49.24551 | 16710 ft | 425 kts | 109° |
| 2026-04-29 17:21 | 40.12342 | 49.28228 | 16024 ft | 421 kts | 109° |
| 2026-04-29 17:21 | 40.11653 | 49.31889 | 15358 ft | 419 kts | 98° |
| 2026-04-29 17:21 | 40.11645 | 49.35702 | 14739 ft | 416 kts | 87° |
| 2026-04-29 17:21 | 40.11852 | 49.39401 | 14248 ft | 409 kts | 86° |
| 2026-04-29 17:22 | 40.12066 | 49.43049 | 13994 ft | 396 kts | 87° |
| 2026-04-29 17:22 | 40.12266 | 49.46598 | 13742 ft | 383 kts | 87° |
| 2026-04-29 17:22 | 40.12449 | 49.49975 | 13504 ft | 372 kts | 87° |
| 2026-04-29 17:22 | 40.12626 | 49.53311 | 13281 ft | 361 kts | 87° |
| 2026-04-29 17:23 | 40.12794 | 49.56543 | 13087 ft | 351 kts | 87° |
| 2026-04-29 17:23 | 40.12953 | 49.59646 | 12898 ft | 341 kts | 87° |
| 2026-04-29 17:23 | 40.13109 | 49.62701 | 12709 ft | 329 kts | 87° |
| 2026-04-29 17:23 | 40.13257 | 49.65613 | 12413 ft | 311 kts | 88° |
| 2026-04-29 17:24 | 40.13394 | 49.68332 | 12113 ft | 295 kts | 88° |
| 2026-04-29 17:24 | 40.13525 | 49.70953 | 11846 ft | 281 kts | 87° |
| 2026-04-29 17:24 | 40.13609 | 49.73433 | 11501 ft | 272 kts | 95° |
| 2026-04-29 17:24 | 40.13065 | 49.75757 | 11089 ft | 267 kts | 130° |
| 2026-04-29 17:25 | 40.11833 | 49.77524 | 10958 ft | 259 kts | 140° |
| 2026-04-29 17:25 | 40.10541 | 49.79121 | 10795 ft | 255 kts | 140° |
| 2026-04-29 17:25 | 40.09268 | 49.80690 | 10635 ft | 252 kts | 140° |
| 2026-04-29 17:25 | 40.07993 | 49.82276 | 10415 ft | 252 kts | 140° |
| 2026-04-29 17:26 | 40.06749 | 49.83857 | 10219 ft | 252 kts | 137° |
| 2026-04-29 17:26 | 40.05743 | 49.85759 | 10002 ft | 256 kts | 121° |
| 2026-04-29 17:26 | 40.04942 | 49.87851 | 9756 ft | 256 kts | 120° |
| 2026-04-29 17:26 | 40.04181 | 49.89928 | 9522 ft | 255 kts | 117° |
| 2026-04-29 17:27 | 40.03422 | 49.91997 | 9354 ft | 252 kts | 118° |
| 2026-04-29 17:27 | 40.02653 | 49.94065 | 9089 ft | 252 kts | 119° |
| 2026-04-29 17:27 | 40.01912 | 49.96152 | 8777 ft | 256 kts | 112° |
| 2026-04-29 17:27 | 40.01532 | 49.98374 | 8603 ft | 253 kts | 99° |
| 2026-04-29 17:28 | 40.01338 | 50.00656 | 8431 ft | 250 kts | 96° |
| 2026-04-29 17:28 | 40.01170 | 50.02918 | 8199 ft | 250 kts | 97° |
| 2026-04-29 17:28 | 40.01001 | 50.05150 | 7935 ft | 251 kts | 97° |
| 2026-04-29 17:28 | 40.00823 | 50.07429 | 7730 ft | 249 kts | 97° |
| 2026-04-29 17:29 | 40.00682 | 50.09637 | 7567 ft | 245 kts | 90° |
| 2026-04-29 17:29 | 40.00901 | 50.11838 | 7307 ft | 246 kts | 77° |
| 2026-04-29 17:29 | 40.01338 | 50.13989 | 7126 ft | 242 kts | 69° |
| 2026-04-29 17:29 | 40.01819 | 50.15315 | 6854 ft | 245 kts | 56° |
| 2026-04-29 17:30 | 40.03556 | 50.17205 | 6190 ft | 252 kts | 15° |
| 2026-04-29 17:30 | 40.05298 | 50.17317 | 5683 ft | 254 kts | 348° |
| 2026-04-29 17:30 | 40.06991 | 50.16796 | 5367 ft | 250 kts | 343° |
| 2026-04-29 17:30 | 40.08636 | 50.16215 | 5256 ft | 239 kts | 343° |
| 2026-04-29 17:31 | 40.10225 | 50.15658 | 5125 ft | 231 kts | 343° |
| 2026-04-29 17:31 | 40.11741 | 50.15130 | 4956 ft | 226 kts | 343° |
| 2026-04-29 17:31 | 40.13236 | 50.14613 | 4831 ft | 218 kts | 344° |
| 2026-04-29 17:31 | 40.14672 | 50.14119 | 4678 ft | 207 kts | 343° |
| 2026-04-29 17:32 | 40.16014 | 50.13660 | 4513 ft | 190 kts | 344° |
| 2026-04-29 17:32 | 40.17252 | 50.13238 | 4339 ft | 178 kts | 343° |
| 2026-04-29 17:32 | 40.18412 | 50.12839 | 4068 ft | 173 kts | 344° |
| 2026-04-29 17:32 | 40.19585 | 50.12432 | 3724 ft | 172 kts | 344° |
| 2026-04-29 17:33 | 40.20710 | 50.12038 | 3491 ft | 166 kts | 344° |
| 2026-04-29 17:33 | 40.21820 | 50.11646 | 3186 ft | 164 kts | 345° |
| 2026-04-29 17:33 | 40.22924 | 50.11270 | 2813 ft | 163 kts | 345° |
| 2026-04-29 17:33 | 40.23999 | 50.10931 | 2534 ft | 158 kts | 346° |
| 2026-04-29 17:34 | 40.25050 | 50.10601 | 2266 ft | 152 kts | 346° |
| 2026-04-29 17:34 | 40.26061 | 50.10278 | 2035 ft | 147 kts | 346° |
| 2026-04-29 17:34 | 40.27029 | 50.09968 | 1988 ft | 141 kts | 346° |
| 2026-04-29 17:34 | 40.27973 | 50.09666 | 1990 ft | 139 kts | 346° |
| 2026-04-29 17:35 | 40.29220 | 50.09272 | 1993 ft | 139 kts | 346° |
| 2026-04-29 17:35 | 40.30783 | 50.08784 | 1991 ft | 138 kts | 346° |
| 2026-04-29 17:35 | 40.31702 | 50.08498 | 2005 ft | 137 kts | 346° |
| 2026-04-29 17:36 | 40.32638 | 50.08206 | 1995 ft | 138 kts | 346° |
| 2026-04-29 17:36 | 40.33570 | 50.07915 | 2014 ft | 139 kts | 346° |
| 2026-04-29 17:36 | 40.34519 | 50.07618 | 2014 ft | 140 kts | 346° |
| 2026-04-29 17:36 | 40.35468 | 50.07320 | 2015 ft | 139 kts | 346° |
| 2026-04-29 17:37 | 40.36352 | 50.07042 | 1915 ft | 127 kts | 346° |
| 2026-04-29 17:37 | 40.37189 | 50.06779 | 1744 ft | 121 kts | 346° |
| 2026-04-29 17:37 | 40.38008 | 50.06522 | 1573 ft | 121 kts | 346° |
| 2026-04-29 17:37 | 40.38825 | 50.06266 | 1408 ft | 121 kts | 346° |
| 2026-04-29 17:38 | 40.39632 | 50.06013 | 1242 ft | 121 kts | 346° |
| 2026-04-29 17:38 | 40.40453 | 50.05755 | 1075 ft | 121 kts | 346° |
| 2026-04-29 17:38 | 40.41265 | 50.05493 | 856 ft | 119 kts | 346° |
| 2026-04-29 17:38 | 40.42065 | 50.05236 | 636 ft | 117 kts | 345° |
| 2026-04-29 17:39 | 40.42847 | 50.05014 | 470 ft | 117 kts | 344° |
| 2026-04-29 17:39 | 40.43624 | 50.04774 | 391 ft | 117 kts | 343° |
| 2026-04-29 17:39 | 40.44422 | 50.04512 | 274 ft | 116 kts | 342° |
| 2026-04-29 17:39 | 40.45210 | 50.04270 | 126 ft | 116 kts | 343° |
| 2026-04-29 17:40 | 40.45987 | 50.04027 | 26 ft | 108 kts | 341° |
| 2026-04-29 17:40 | 40.46542 | 50.03845 | 14 ft | 55 kts | 346° |
| 2026-04-29 17:40 | 40.46752 | 50.03780 | 13 ft | 13 kts | 346° |
| 2026-04-29 17:40 | 40.46795 | 50.03814 | 15 ft | 6 kts | 66° |
| 2026-04-29 17:41 | 40.46807 | 50.03868 | 15 ft | 6 kts | 75° |
| 2026-04-29 17:41 | 40.46817 | 50.03919 | 17 ft | 6 kts | 75° |
| 2026-04-29 17:41 | 40.46831 | 50.03989 | 18 ft | 12 kts | 75° |
| 2026-04-29 17:41 | 40.46856 | 50.04129 | 18 ft | 19 kts | 78° |
| 2026-04-29 17:42 | 40.46889 | 50.04321 | 19 ft | 24 kts | 77° |
| 2026-04-29 17:42 | 40.46908 | 50.04545 | 19 ft | 25 kts | 89° |
| 2026-04-29 17:42 | 40.46913 | 50.04780 | 19 ft | 21 kts | 88° |
| 2026-04-29 17:42 | 40.46919 | 50.04976 | 19 ft | 22 kts | 88° |
| 2026-04-29 17:43 | 40.46914 | 50.05042 | 19 ft | 5 kts | 125° |
| 2026-04-29 17:43 | 40.46869 | 50.05049 | 19 ft | 20 kts | 181° |
| 2026-04-29 17:43 | 40.46744 | 50.05026 | 19 ft | 11 kts | 202° |
| 2026-04-29 17:43 | 40.46692 | 50.04997 | 19 ft | 7 kts | 202° |
| 2026-04-29 17:44 | 40.46657 | 50.05015 | 19 ft | 4 kts | 131° |
| 2026-04-29 17:44 | 40.46639 | 50.05059 | 19 ft | 5 kts | 115° |
| 2026-04-29 17:44 | 40.46631 | 50.05081 | 19 ft | 1 kts | 116° |
| 2026-04-29 17:44 | 40.46629 | 50.05087 | 19 ft | 0 kts | 116° |